Nicole Brent — WDC2615 — position and weather

sailwx.info

Track history (hours):
 
Tides and Currents Weather Stations Pressure Air Temp Water Temp Dewpoint Dewpoint Depression Visibility Wind Speed Wind Dir Waves Ship Positions

Nicole Brent

Owner: Kirby Inland Marine, LP, Houston, TX. More information available from US FCC via Universal Licensing System and Coast Guard Vessel Documentation Center.

Last reported at 2018-Feb-24 16:59 UTC. Time now 2018-Feb-25 02:14 UTC.
Position N 29°32' W 094°54'.

Length 105 m; draft 2.4 m.

Type: . MMSI: 366995620.

Date/timePositionNaut miles runAvg speedWind from/ knotsBaromVisibWave heightAir tempDewpointWater temp
2018-Feb-24 16:59N 29°32' W 094°54'4 8.5
2018-Feb-24 16:30N 29°35' W 094°56'4 8.7
2018-Feb-24 16:00N 29°39' W 094°58'4 8.5
2018-Feb-24 15:30N 29°43' W 095°01'  
2018-Feb-21 11:12N 29°45' W 095°10'4 6.2
2018-Feb-21 10:31N 29°46' W 095°05'0 6.7
2018-Feb-21 10:28N 29°46' W 095°05'3 6.5
2018-Feb-21 10:00N 29°44' W 095°02'3 5.9
2018-Feb-21 09:30N 29°42' W 094°60'4 7.0
2018-Feb-21 09:00N 29°39' W 094°58'4 7.6
2018-Feb-21 08:29N 29°35' W 094°56'4 7.9
2018-Feb-21 08:00N 29°32' W 094°54'11 6.9
2018-Feb-21 06:23N 29°22' W 094°47'19 4.0
2018-Feb-21 01:41N 29°32' W 094°29'5 3.2
2018-Feb-21 00:14N 29°36' W 094°25'2 4.8
2018-Feb-20 23:51N 29°36' W 094°23'1 3.0
2018-Feb-20 23:30N 29°36' W 094°22'0 0.2
2018-Feb-20 22:59N 29°36' W 094°22'3 4.6
2018-Feb-20 22:18N 29°38' W 094°18'2 6.4
2018-Feb-20 22:00N 29°39' W 094°17'3 6.2
2018-Feb-20 21:30N 29°40' W 094°13'3 6.2
2018-Feb-20 20:59N 29°41' W 094°10'3 5.9
2018-Feb-20 20:30N 29°43' W 094°07'3 5.3
2018-Feb-20 20:00N 29°45' W 094°05'3 6.1
2018-Feb-20 19:30N 29°47' W 094°02'3 6.2
2018-Feb-20 19:00N 29°49' W 093°60'1 2.4
2018-Feb-20 18:30N 29°49' W 093°58'0 0.0
2018-Feb-20 18:00N 29°49' W 093°58'3 6.3
2018-Feb-20 17:30N 29°52' W 093°56'4 8.4
2018-Feb-20 17:00N 29°55' W 093°53'4 7.4
2018-Feb-20 16:30N 29°59' W 093°52'4 7.8
2018-Feb-20 16:00N 29°60' W 093°56'3 6.2
2018-Feb-20 15:30N 30°01' W 093°59'1 2.6
2018-Feb-20 15:00N 30°01' W 094°01'0 0.0
2018-Feb-20 14:30N 30°01' W 094°01'0 0.0
2018-Feb-20 14:00N 30°01' W 094°01'0 0.0
2018-Feb-20 13:30N 30°01' W 094°01'0 0.1
2018-Feb-20 13:00N 30°01' W 094°01'0 0.0
2018-Feb-20 12:30N 30°01' W 094°01'0 0.0
2018-Feb-20 12:00N 30°01' W 094°01'0 0.0
2018-Feb-20 11:30N 30°01' W 094°01'1 1.2
2018-Feb-20 10:58N 30°01' W 094°01'0 0.0
2018-Feb-20 10:28N 30°01' W 094°01'0 0.0
2018-Feb-20 09:58N 30°01' W 094°01'0 0.0
2018-Feb-20 09:28N 30°01' W 094°01'0 0.0
2018-Feb-20 08:55N 30°01' W 094°01'0 0.0
2018-Feb-20 08:28N 30°01' W 094°01'0 0.0
2018-Feb-20 07:58N 30°01' W 094°01'0 0.0
2018-Feb-20 07:28N 30°01' W 094°01'0 0.0
2018-Feb-20 06:58N 30°01' W 094°01'0 0.0
2018-Feb-20 06:25N 30°01' W 094°01'0 0.0
2018-Feb-20 05:58N 30°01' W 094°01'0 0.0
2018-Feb-20 05:28N 30°01' W 094°01'0 0.0
2018-Feb-20 04:58N 30°01' W 094°01'0 0.0
2018-Feb-20 04:28N 30°01' W 094°01'0 0.0
2018-Feb-20 03:58N 30°01' W 094°01'0 0.0
2018-Feb-20 03:28N 30°01' W 094°01'0 0.0
2018-Feb-20 02:58N 30°01' W 094°01'0 0.0
2018-Feb-20 02:28N 30°01' W 094°01'0 0.9
2018-Feb-20 02:01N 30°01' W 094°01'3 6.2
2018-Feb-20 01:31N 30°01' W 093°57'4 8.1
2018-Feb-20 01:00N 29°59' W 093°53'3 6.3
2018-Feb-20 00:31N 29°56' W 093°52'4 8.2
2018-Feb-20 00:00N 29°53' W 093°55'4 7.7
2018-Feb-19 23:30N 29°49' W 093°58'1 2.6
2018-Feb-19 23:01N 29°49' W 093°59'0 0.0
2018-Feb-19 22:30N 29°49' W 093°59'1 2.8
2018-Feb-19 22:01N 29°48' W 094°00'1 1.3
2018-Feb-19 21:31N 29°48' W 094°01'3 6.5
2018-Feb-19 21:01N 29°46' W 094°04'4 7.5
2018-Feb-19 20:30N 29°43' W 094°07'4 7.2
2018-Feb-19 20:00N 29°41' W 094°10'4 7.3
2018-Feb-19 19:30N 29°40' W 094°14'4 7.2
2018-Feb-19 19:00N 29°38' W 094°18'4 7.0
2018-Feb-19 18:29N 29°36' W 094°22'4 5.3
2018-Feb-19 17:46N 29°34' W 094°25'3 5.0
2018-Feb-19 17:13N 29°33' W 094°28'2 6.7
2018-Feb-19 16:59N 29°32' W 094°29'3 5.7
2018-Feb-19 16:29N 29°31' W 094°32'0 0.0
2018-Feb-19 15:59N 29°31' W 094°32'0 0.0
2018-Feb-19 15:30N 29°31' W 094°32'3 6.0
2018-Feb-19 14:58N 29°29' W 094°35'0 0.0
2018-Feb-19 14:30N 29°29' W 094°35'0 0.0
2018-Feb-19 13:58N 29°29' W 094°35'0 0.0
2018-Feb-19 10:22N 29°29' W 094°35'0 0.0
2018-Feb-19 09:40N 29°29' W 094°35'0 0.0
2018-Feb-19 09:30N 29°29' W 094°35'0 0.0
2018-Feb-19 09:00N 29°29' W 094°35'0 0.0
2018-Feb-19 08:28N 29°29' W 094°35'0 0.0
2018-Feb-19 08:00N 29°29' W 094°35'0 0.0
2018-Feb-19 07:29N 29°29' W 094°35'0 0.0
2018-Feb-19 06:59N 29°29' W 094°35'0 0.0
2018-Feb-19 06:20N 29°29' W 094°35'0 0.0
2018-Feb-19 05:36N 29°29' W 094°35'0 0.0
2018-Feb-19 05:31N 29°29' W 094°35'0 0.0
2018-Feb-19 04:53N 29°29' W 094°35'13 1.4
2018-Feb-18 19:18N 29°23' W 094°49'4 9.3
2018-Feb-18 18:53N 29°27' W 094°50'5 9.4
2018-Feb-18 18:19N 29°31' W 094°53'3 9.0
2018-Feb-18 17:59N 29°34' W 094°55'4 8.7
2018-Feb-18 17:31N 29°37' W 094°58'4 8.8
2018-Feb-18 17:00N 29°41' W 094°59'  
2018-Feb-15 19:36N 29°38' W 094°58'1 6.4
2018-Feb-15 19:30N 29°38' W 094°58'4 7.5
2018-Feb-15 19:00N 29°35' W 094°56'14 1.2
2018-Feb-15 07:21N 29°26' W 094°43'0 0.0
2018-Feb-15 06:18N 29°26' W 094°43'0 0.0
2018-Feb-15 05:45N 29°26' W 094°43'0 0.0
2018-Feb-15 05:06N 29°26' W 094°43'0 0.0
2018-Feb-15 05:00N 29°26' W 094°43'0 0.0
2018-Feb-15 04:24N 29°26' W 094°43'0 0.0
2018-Feb-15 03:51N 29°26' W 094°43'0 0.0
2018-Feb-15 03:27N 29°26' W 094°43'0 0.0
2018-Feb-15 02:57N 29°26' W 094°43'0 0.0
2018-Feb-15 02:27N 29°26' W 094°43'0 0.0
2018-Feb-14 18:03N 29°26' W 094°43'0 0.0
2018-Feb-14 17:57N 29°26' W 094°43'  
Track history (hours):
 
Tides and Currents Weather Stations Pressure Air Temp Water Temp Dewpoint Dewpoint Depression Visibility Wind Speed Wind Dir Waves Ship Positions

Nicole Brent

Owner: Kirby Inland Marine, LP, Houston, TX. More information available from US FCC via Universal Licensing System and Coast Guard Vessel Documentation Center.

Last reported at 2018-Feb-24 16:59 UTC. Time now 2018-Feb-25 02:14 UTC.
Position N 29°32' W 094°54'.

Length 105 m; draft 2.4 m.

Type: . MMSI: 366995620.

Date/timePositionNaut miles runAvg speedWind from/ knotsBaromVisibWave heightAir tempDewpointWater temp
2018-Feb-24 16:59N 29°32' W 094°54'4 8.5
2018-Feb-24 16:30N 29°35' W 094°56'4 8.7
2018-Feb-24 16:00N 29°39' W 094°58'4 8.5
2018-Feb-24 15:30N 29°43' W 095°01'  
2018-Feb-21 11:12N 29°45' W 095°10'4 6.2
2018-Feb-21 10:31N 29°46' W 095°05'0 6.7
2018-Feb-21 10:28N 29°46' W 095°05'3 6.5
2018-Feb-21 10:00N 29°44' W 095°02'3 5.9
2018-Feb-21 09:30N 29°42' W 094°60'4 7.0
2018-Feb-21 09:00N 29°39' W 094°58'4 7.6
2018-Feb-21 08:29N 29°35' W 094°56'4 7.9
2018-Feb-21 08:00N 29°32' W 094°54'11 6.9
2018-Feb-21 06:23N 29°22' W 094°47'19 4.0
2018-Feb-21 01:41N 29°32' W 094°29'5 3.2
2018-Feb-21 00:14N 29°36' W 094°25'2 4.8
2018-Feb-20 23:51N 29°36' W 094°23'1 3.0
2018-Feb-20 23:30N 29°36' W 094°22'0 0.2
2018-Feb-20 22:59N 29°36' W 094°22'3 4.6
2018-Feb-20 22:18N 29°38' W 094°18'2 6.4
2018-Feb-20 22:00N 29°39' W 094°17'3 6.2
2018-Feb-20 21:30N 29°40' W 094°13'3 6.2
2018-Feb-20 20:59N 29°41' W 094°10'3 5.9
2018-Feb-20 20:30N 29°43' W 094°07'3 5.3
2018-Feb-20 20:00N 29°45' W 094°05'3 6.1
2018-Feb-20 19:30N 29°47' W 094°02'3 6.2
2018-Feb-20 19:00N 29°49' W 093°60'1 2.4
2018-Feb-20 18:30N 29°49' W 093°58'0 0.0
2018-Feb-20 18:00N 29°49' W 093°58'3 6.3
2018-Feb-20 17:30N 29°52' W 093°56'4 8.4
2018-Feb-20 17:00N 29°55' W 093°53'4 7.4
2018-Feb-20 16:30N 29°59' W 093°52'4 7.8
2018-Feb-20 16:00N 29°60' W 093°56'3 6.2
2018-Feb-20 15:30N 30°01' W 093°59'1 2.6
2018-Feb-20 15:00N 30°01' W 094°01'0 0.0
2018-Feb-20 14:30N 30°01' W 094°01'0 0.0
2018-Feb-20 14:00N 30°01' W 094°01'0 0.0
2018-Feb-20 13:30N 30°01' W 094°01'0 0.1
2018-Feb-20 13:00N 30°01' W 094°01'0 0.0
2018-Feb-20 12:30N 30°01' W 094°01'0 0.0
2018-Feb-20 12:00N 30°01' W 094°01'0 0.0
2018-Feb-20 11:30N 30°01' W 094°01'1 1.2
2018-Feb-20 10:58N 30°01' W 094°01'0 0.0
2018-Feb-20 10:28N 30°01' W 094°01'0 0.0
2018-Feb-20 09:58N 30°01' W 094°01'0 0.0
2018-Feb-20 09:28N 30°01' W 094°01'0 0.0
2018-Feb-20 08:55N 30°01' W 094°01'0 0.0
2018-Feb-20 08:28N 30°01' W 094°01'0 0.0
2018-Feb-20 07:58N 30°01' W 094°01'0 0.0
2018-Feb-20 07:28N 30°01' W 094°01'0 0.0
2018-Feb-20 06:58N 30°01' W 094°01'0 0.0
2018-Feb-20 06:25N 30°01' W 094°01'0 0.0
2018-Feb-20 05:58N 30°01' W 094°01'0 0.0
2018-Feb-20 05:28N 30°01' W 094°01'0 0.0
2018-Feb-20 04:58N 30°01' W 094°01'0 0.0
2018-Feb-20 04:28N 30°01' W 094°01'0 0.0
2018-Feb-20 03:58N 30°01' W 094°01'0 0.0
2018-Feb-20 03:28N 30°01' W 094°01'0 0.0
2018-Feb-20 02:58N 30°01' W 094°01'0 0.0
2018-Feb-20 02:28N 30°01' W 094°01'0 0.9
2018-Feb-20 02:01N 30°01' W 094°01'3 6.2
2018-Feb-20 01:31N 30°01' W 093°57'4 8.1
2018-Feb-20 01:00N 29°59' W 093°53'3 6.3
2018-Feb-20 00:31N 29°56' W 093°52'4 8.2
2018-Feb-20 00:00N 29°53' W 093°55'4 7.7
2018-Feb-19 23:30N 29°49' W 093°58'1 2.6
2018-Feb-19 23:01N 29°49' W 093°59'0 0.0
2018-Feb-19 22:30N 29°49' W 093°59'1 2.8
2018-Feb-19 22:01N 29°48' W 094°00'1 1.3
2018-Feb-19 21:31N 29°48' W 094°01'3 6.5
2018-Feb-19 21:01N 29°46' W 094°04'4 7.5
2018-Feb-19 20:30N 29°43' W 094°07'4 7.2
2018-Feb-19 20:00N 29°41' W 094°10'4 7.3
2018-Feb-19 19:30N 29°40' W 094°14'4 7.2
2018-Feb-19 19:00N 29°38' W 094°18'4 7.0
2018-Feb-19 18:29N 29°36' W 094°22'4 5.3
2018-Feb-19 17:46N 29°34' W 094°25'3 5.0
2018-Feb-19 17:13N 29°33' W 094°28'2 6.7
2018-Feb-19 16:59N 29°32' W 094°29'3 5.7
2018-Feb-19 16:29N 29°31' W 094°32'0 0.0
2018-Feb-19 15:59N 29°31' W 094°32'0 0.0
2018-Feb-19 15:30N 29°31' W 094°32'3 6.0
2018-Feb-19 14:58N 29°29' W 094°35'0 0.0
2018-Feb-19 14:30N 29°29' W 094°35'0 0.0
2018-Feb-19 13:58N 29°29' W 094°35'0 0.0
2018-Feb-19 10:22N 29°29' W 094°35'0 0.0
2018-Feb-19 09:40N 29°29' W 094°35'0 0.0
2018-Feb-19 09:30N 29°29' W 094°35'0 0.0
2018-Feb-19 09:00N 29°29' W 094°35'0 0.0
2018-Feb-19 08:28N 29°29' W 094°35'0 0.0
2018-Feb-19 08:00N 29°29' W 094°35'0 0.0
2018-Feb-19 07:29N 29°29' W 094°35'0 0.0
2018-Feb-19 06:59N 29°29' W 094°35'0 0.0
2018-Feb-19 06:20N 29°29' W 094°35'0 0.0
2018-Feb-19 05:36N 29°29' W 094°35'0 0.0
2018-Feb-19 05:31N 29°29' W 094°35'0 0.0
2018-Feb-19 04:53N 29°29' W 094°35'13 1.4
2018-Feb-18 19:18N 29°23' W 094°49'4 9.3
2018-Feb-18 18:53N 29°27' W 094°50'5 9.4
2018-Feb-18 18:19N 29°31' W 094°53'3 9.0
2018-Feb-18 17:59N 29°34' W 094°55'4 8.7
2018-Feb-18 17:31N 29°37' W 094°58'4 8.8
2018-Feb-18 17:00N 29°41' W 094°59'  
2018-Feb-15 19:36N 29°38' W 094°58'1 6.4
2018-Feb-15 19:30N 29°38' W 094°58'4 7.5
2018-Feb-15 19:00N 29°35' W 094°56'14 1.2
2018-Feb-15 07:21N 29°26' W 094°43'0 0.0
2018-Feb-15 06:18N 29°26' W 094°43'0 0.0
2018-Feb-15 05:45N 29°26' W 094°43'0 0.0
2018-Feb-15 05:06N 29°26' W 094°43'0 0.0
2018-Feb-15 05:00N 29°26' W 094°43'0 0.0
2018-Feb-15 04:24N 29°26' W 094°43'0 0.0
2018-Feb-15 03:51N 29°26' W 094°43'0 0.0
2018-Feb-15 03:27N 29°26' W 094°43'0 0.0
2018-Feb-15 02:57N 29°26' W 094°43'0 0.0
2018-Feb-15 02:27N 29°26' W 094°43'0 0.0
2018-Feb-14 18:03N 29°26' W 094°43'0 0.0
2018-Feb-14 17:57N 29°26' W 094°43'  

Dump ship's entire track history